sensor_id;sensor_type;location;lat;lon;timestamp;P1;durP1;ratioP1;P2;durP2;ratioP2
40588;SDS011;26297;49.450;6.640;2023-06-14T00:06:36;4.60;;;2.97;;
40588;SDS011;26297;49.450;6.640;2023-06-14T00:51:09;3.72;;;3.00;;
40588;SDS011;26297;49.450;6.640;2023-06-14T01:11:43;3.53;;;3.22;;
40588;SDS011;26297;49.450;6.640;2023-06-14T03:17:35;3.88;;;3.20;;
40588;SDS011;26297;49.450;6.640;2023-06-14T03:21:07;4.87;;;3.43;;
40588;SDS011;26297;49.450;6.640;2023-06-14T04:02:07;4.55;;;3.42;;
40588;SDS011;26297;49.450;6.640;2023-06-14T04:05:11;4.07;;;3.17;;
40588;SDS011;26297;49.450;6.640;2023-06-14T04:08:18;4.28;;;3.17;;
40588;SDS011;26297;49.450;6.640;2023-06-14T04:11:22;3.53;;;3.22;;
40588;SDS011;26297;49.450;6.640;2023-06-14T04:14:27;3.58;;;3.28;;
40588;SDS011;26297;49.450;6.640;2023-06-14T04:17:36;4.45;;;3.30;;
40588;SDS011;26297;49.450;6.640;2023-06-14T04:20:40;5.93;;;3.60;;
40588;SDS011;26297;49.450;6.640;2023-06-14T04:23:44;5.75;;;3.35;;
40588;SDS011;26297;49.450;6.640;2023-06-14T04:26:48;3.83;;;3.45;;
40588;SDS011;26297;49.450;6.640;2023-06-14T04:55:15;3.95;;;3.50;;
40588;SDS011;26297;49.450;6.640;2023-06-14T04:58:20;3.08;;;2.88;;
40588;SDS011;26297;49.450;6.640;2023-06-14T05:01:24;4.82;;;3.78;;
40588;SDS011;26297;49.450;6.640;2023-06-14T05:04:28;3.72;;;3.25;;
40588;SDS011;26297;49.450;6.640;2023-06-14T05:07:32;5.22;;;3.40;;
40588;SDS011;26297;49.450;6.640;2023-06-14T05:10:39;4.03;;;2.78;;
40588;SDS011;26297;49.450;6.640;2023-06-14T05:13:46;4.90;;;3.42;;
40588;SDS011;26297;49.450;6.640;2023-06-14T05:24:41;5.35;;;3.60;;
40588;SDS011;26297;49.450;6.640;2023-06-14T05:27:48;3.63;;;2.80;;
40588;SDS011;26297;49.450;6.640;2023-06-14T05:30:51;4.32;;;3.17;;
40588;SDS011;26297;49.450;6.640;2023-06-14T05:33:55;5.30;;;3.30;;
40588;SDS011;26297;49.450;6.640;2023-06-14T05:36:58;3.72;;;3.13;;
40588;SDS011;26297;49.450;6.640;2023-06-14T05:40:05;6.13;;;3.40;;
40588;SDS011;26297;49.450;6.640;2023-06-14T05:43:11;3.90;;;3.03;;
40588;SDS011;26297;49.450;6.640;2023-06-14T05:46:14;4.85;;;3.67;;
40588;SDS011;26297;49.450;6.640;2023-06-14T05:49:21;3.67;;;2.90;;
40588;SDS011;26297;49.450;6.640;2023-06-14T05:52:27;3.83;;;3.45;;
40588;SDS011;26297;49.450;6.640;2023-06-14T05:55:33;4.97;;;3.55;;
40588;SDS011;26297;49.450;6.640;2023-06-14T05:58:38;3.40;;;3.10;;
40588;SDS011;26297;49.450;6.640;2023-06-14T06:01:50;4.03;;;3.00;;
40588;SDS011;26297;49.450;6.640;2023-06-14T06:04:56;6.10;;;2.88;;
40588;SDS011;26297;49.450;6.640;2023-06-14T06:08:03;3.80;;;3.30;;
40588;SDS011;26297;49.450;6.640;2023-06-14T06:11:09;4.55;;;3.05;;
40588;SDS011;26297;49.450;6.640;2023-06-14T06:14:15;3.58;;;3.28;;
40588;SDS011;26297;49.450;6.640;2023-06-14T06:17:18;3.53;;;3.13;;
40588;SDS011;26297;49.450;6.640;2023-06-14T06:20:22;3.65;;;3.30;;
40588;SDS011;26297;49.450;6.640;2023-06-14T06:23:31;3.53;;;3.22;;
40588;SDS011;26297;49.450;6.640;2023-06-14T06:26:34;4.57;;;3.67;;
40588;SDS011;26297;49.450;6.640;2023-06-14T06:29:38;3.90;;;3.03;;
40588;SDS011;26297;49.450;6.640;2023-06-14T06:32:43;3.38;;;3.08;;
40588;SDS011;26297;49.450;6.640;2023-06-14T06:35:48;4.13;;;3.25;;
40588;SDS011;26297;49.450;6.640;2023-06-14T06:38:55;4.07;;;3.67;;
40588;SDS011;26297;49.450;6.640;2023-06-14T06:42:01;4.10;;;3.35;;
40588;SDS011;26297;49.450;6.640;2023-06-14T06:45:07;4.40;;;3.60;;
40588;SDS011;26297;49.450;6.640;2023-06-14T06:48:15;4.18;;;3.35;;
40588;SDS011;26297;49.450;6.640;2023-06-14T06:51:23;6.63;;;3.85;;
40588;SDS011;26297;49.450;6.640;2023-06-14T06:54:27;6.60;;;4.30;;
40588;SDS011;26297;49.450;6.640;2023-06-14T06:57:30;5.07;;;4.05;;
40588;SDS011;26297;49.450;6.640;2023-06-14T07:00:36;4.18;;;3.58;;
40588;SDS011;26297;49.450;6.640;2023-06-14T07:03:43;4.63;;;2.88;;
40588;SDS011;26297;49.450;6.640;2023-06-14T07:06:49;4.40;;;2.88;;
40588;SDS011;26297;49.450;6.640;2023-06-14T07:09:57;7.55;;;3.13;;
40588;SDS011;26297;49.450;6.640;2023-06-14T07:13:00;4.30;;;3.22;;
40588;SDS011;26297;49.450;6.640;2023-06-14T07:16:08;3.08;;;2.78;;
40588;SDS011;26297;49.450;6.640;2023-06-14T07:22:26;4.25;;;3.08;;
40588;SDS011;26297;49.450;6.640;2023-06-14T07:25:29;3.50;;;2.75;;
40588;SDS011;26297;49.450;6.640;2023-06-14T07:28:33;3.75;;;2.90;;
40588;SDS011;26297;49.450;6.640;2023-06-14T07:31:36;4.57;;;2.60;;
40588;SDS011;26297;49.450;6.640;2023-06-14T07:34:40;3.70;;;3.30;;
40588;SDS011;26297;49.450;6.640;2023-06-14T07:37:43;5.50;;;2.75;;
40588;SDS011;26297;49.450;6.640;2023-06-14T07:44:43;3.38;;;3.08;;
40588;SDS011;26297;49.450;6.640;2023-06-14T07:52:39;5.53;;;3.30;;
40588;SDS011;26297;49.450;6.640;2023-06-14T07:55:42;4.45;;;2.72;;
40588;SDS011;26297;49.450;6.640;2023-06-14T07:58:55;4.57;;;3.00;;
40588;SDS011;26297;49.450;6.640;2023-06-14T08:02:01;3.60;;;2.43;;
40588;SDS011;26297;49.450;6.640;2023-06-14T08:05:10;8.05;;;2.55;;
40588;SDS011;26297;49.450;6.640;2023-06-14T08:08:14;5.65;;;2.97;;
40588;SDS011;26297;49.450;6.640;2023-06-14T08:11:17;3.20;;;2.90;;
40588;SDS011;26297;49.450;6.640;2023-06-14T08:14:21;3.05;;;2.80;;
40588;SDS011;26297;49.450;6.640;2023-06-14T08:17:26;7.45;;;3.00;;
40588;SDS011;26297;49.450;6.640;2023-06-14T08:20:30;3.83;;;3.30;;
40588;SDS011;26297;49.450;6.640;2023-06-14T08:23:34;6.03;;;2.80;;
40588;SDS011;26297;49.450;6.640;2023-06-14T08:26:41;5.13;;;3.10;;
40588;SDS011;26297;49.450;6.640;2023-06-14T08:29:45;4.53;;;2.97;;
40588;SDS011;26297;49.450;6.640;2023-06-14T08:32:50;4.03;;;3.45;;
40588;SDS011;26297;49.450;6.640;2023-06-14T08:35:58;4.80;;;3.00;;
40588;SDS011;26297;49.450;6.640;2023-06-14T08:39:01;3.95;;;3.17;;
40588;SDS011;26297;49.450;6.640;2023-06-14T08:42:32;3.35;;;2.60;;
40588;SDS011;26297;49.450;6.640;2023-06-14T08:45:38;3.95;;;3.00;;
40588;SDS011;26297;49.450;6.640;2023-06-14T08:48:55;3.15;;;2.85;;
40588;SDS011;26297;49.450;6.640;2023-06-14T08:52:51;3.28;;;2.42;;
40588;SDS011;26297;49.450;6.640;2023-06-14T08:56:02;2.75;;;2.38;;
40588;SDS011;26297;49.450;6.640;2023-06-14T08:59:13;2.20;;;2.00;;
40588;SDS011;26297;49.450;6.640;2023-06-14T09:02:17;4.10;;;2.92;;
40588;SDS011;26297;49.450;6.640;2023-06-14T09:05:31;4.15;;;2.72;;
40588;SDS011;26297;49.450;6.640;2023-06-14T09:08:36;5.25;;;3.15;;
40588;SDS011;26297;49.450;6.640;2023-06-14T09:11:43;2.92;;;2.72;;
40588;SDS011;26297;49.450;6.640;2023-06-14T09:14:46;3.00;;;2.50;;
40588;SDS011;26297;49.450;6.640;2023-06-14T09:17:55;3.63;;;3.13;;
40588;SDS011;26297;49.450;6.640;2023-06-14T09:21:08;7.13;;;2.38;;
40588;SDS011;26297;49.450;6.640;2023-06-14T09:24:36;2.85;;;2.55;;
40588;SDS011;26297;49.450;6.640;2023-06-14T09:31:48;4.32;;;2.83;;
40588;SDS011;26297;49.450;6.640;2023-06-14T09:37:55;3.67;;;2.35;;
40588;SDS011;26297;49.450;6.640;2023-06-14T09:41:26;3.08;;;2.78;;
40588;SDS011;26297;49.450;6.640;2023-06-14T09:50:30;7.43;;;3.00;;
40588;SDS011;26297;49.450;6.640;2023-06-14T09:53:52;3.15;;;2.58;;
40588;SDS011;26297;49.450;6.640;2023-06-14T09:57:06;6.25;;;2.65;;
40588;SDS011;26297;49.450;6.640;2023-06-14T10:00:11;3.00;;;2.05;;
40588;SDS011;26297;49.450;6.640;2023-06-14T10:03:31;2.55;;;2.35;;
40588;SDS011;26297;49.450;6.640;2023-06-14T10:14:27;5.65;;;2.85;;
40588;SDS011;26297;49.450;6.640;2023-06-14T10:17:49;3.15;;;2.75;;
40588;SDS011;26297;49.450;6.640;2023-06-14T10:21:16;3.28;;;2.25;;
40588;SDS011;26297;49.450;6.640;2023-06-14T10:28:55;3.97;;;3.10;;
40588;SDS011;26297;49.450;6.640;2023-06-14T10:32:20;3.67;;;2.80;;
40588;SDS011;26297;49.450;6.640;2023-06-14T10:35:35;3.90;;;3.05;;
40588;SDS011;26297;49.450;6.640;2023-06-14T10:42:50;5.28;;;3.03;;
40588;SDS011;26297;49.450;6.640;2023-06-14T10:46:16;0.65;;;0.65;;
40588;SDS011;26297;49.450;6.640;2023-06-14T10:49:41;4.10;;;3.30;;
40588;SDS011;26297;49.450;6.640;2023-06-14T10:53:43;6.93;;;3.80;;
40588;SDS011;26297;49.450;6.640;2023-06-14T10:57:08;3.53;;;2.70;;
40588;SDS011;26297;49.450;6.640;2023-06-14T11:11:11;6.00;;;4.03;;
40588;SDS011;26297;49.450;6.640;2023-06-14T11:14:18;3.58;;;2.88;;
40588;SDS011;26297;49.450;6.640;2023-06-14T11:29:15;7.47;;;4.25;;
40588;SDS011;26297;49.450;6.640;2023-06-14T11:32:23;5.05;;;3.35;;
40588;SDS011;26297;49.450;6.640;2023-06-14T11:35:30;8.15;;;5.72;;
40588;SDS011;26297;49.450;6.640;2023-06-14T11:38:45;8.55;;;3.80;;
40588;SDS011;26297;49.450;6.640;2023-06-14T11:42:02;14.15;;;8.93;;
40588;SDS011;26297;49.450;6.640;2023-06-14T11:45:20;4.40;;;3.60;;
40588;SDS011;26297;49.450;6.640;2023-06-14T11:48:37;6.55;;;5.32;;
40588;SDS011;26297;49.450;6.640;2023-06-14T11:51:46;4.82;;;4.22;;
40588;SDS011;26297;49.450;6.640;2023-06-14T11:54:52;6.18;;;5.03;;
40588;SDS011;26297;49.450;6.640;2023-06-14T11:57:58;6.47;;;4.78;;
40588;SDS011;26297;49.450;6.640;2023-06-14T12:01:03;3.85;;;3.55;;
40588;SDS011;26297;49.450;6.640;2023-06-14T12:08:19;6.68;;;3.63;;
40588;SDS011;26297;49.450;6.640;2023-06-14T12:11:32;4.38;;;3.42;;
40588;SDS011;26297;49.450;6.640;2023-06-14T12:14:57;4.78;;;4.28;;
40588;SDS011;26297;49.450;6.640;2023-06-14T12:18:33;6.82;;;5.10;;
40588;SDS011;26297;49.450;6.640;2023-06-14T12:26:23;5.13;;;4.10;;
40588;SDS011;26297;49.450;6.640;2023-06-14T12:29:37;7.78;;;5.32;;
40588;SDS011;26297;49.450;6.640;2023-06-14T12:36:57;3.80;;;3.03;;
40588;SDS011;26297;49.450;6.640;2023-06-14T12:40:26;4.25;;;3.38;;
40588;SDS011;26297;49.450;6.640;2023-06-14T12:43:40;6.25;;;3.38;;
40588;SDS011;26297;49.450;6.640;2023-06-14T12:50:51;5.43;;;3.78;;
40588;SDS011;26297;49.450;6.640;2023-06-14T12:54:11;3.42;;;2.92;;
40588;SDS011;26297;49.450;6.640;2023-06-14T12:57:44;3.60;;;2.92;;
40588;SDS011;26297;49.450;6.640;2023-06-14T13:05:03;5.85;;;3.50;;
40588;SDS011;26297;49.450;6.640;2023-06-14T13:11:51;3.78;;;2.70;;
40588;SDS011;26297;49.450;6.640;2023-06-14T13:14:54;4.13;;;2.50;;
40588;SDS011;26297;49.450;6.640;2023-06-14T13:17:57;8.98;;;3.28;;
40588;SDS011;26297;49.450;6.640;2023-06-14T13:21:00;3.88;;;2.70;;
40588;SDS011;26297;49.450;6.640;2023-06-14T13:24:07;5.25;;;2.92;;
40588;SDS011;26297;49.450;6.640;2023-06-14T13:27:14;6.15;;;3.30;;
40588;SDS011;26297;49.450;6.640;2023-06-14T13:30:17;7.50;;;3.03;;
40588;SDS011;26297;49.450;6.640;2023-06-14T13:33:22;4.80;;;3.00;;
40588;SDS011;26297;49.450;6.640;2023-06-14T13:36:46;4.28;;;2.70;;
40588;SDS011;26297;49.450;6.640;2023-06-14T13:39:51;3.00;;;2.70;;
40588;SDS011;26297;49.450;6.640;2023-06-14T13:45:54;5.82;;;3.45;;
40588;SDS011;26297;49.450;6.640;2023-06-14T13:53:24;3.42;;;2.95;;
40588;SDS011;26297;49.450;6.640;2023-06-14T13:57:15;7.57;;;3.17;;
40588;SDS011;26297;49.450;6.640;2023-06-14T14:04:38;3.90;;;2.70;;
40588;SDS011;26297;49.450;6.640;2023-06-14T14:14:53;5.40;;;3.50;;
40588;SDS011;26297;49.450;6.640;2023-06-14T15:04:46;4.90;;;2.33;;
40588;SDS011;26297;49.450;6.640;2023-06-14T15:31:15;2.95;;;2.65;;
40588;SDS011;26297;49.450;6.640;2023-06-14T15:38:38;2.58;;;2.38;;
40588;SDS011;26297;49.450;6.640;2023-06-14T15:42:17;2.05;;;1.80;;
40588;SDS011;26297;49.450;6.640;2023-06-14T15:46:00;3.35;;;1.80;;
40588;SDS011;26297;49.450;6.640;2023-06-14T16:21:07;2.37;;;1.57;;
40588;SDS011;26297;49.450;6.640;2023-06-14T16:25:05;1.83;;;1.30;;
40588;SDS011;26297;49.450;6.640;2023-06-14T16:28:46;1.73;;;1.63;;
40588;SDS011;26297;49.450;6.640;2023-06-14T16:32:37;2.58;;;1.60;;
40588;SDS011;26297;49.450;6.640;2023-06-14T16:36:01;2.20;;;1.98;;
40588;SDS011;26297;49.450;6.640;2023-06-14T16:39:23;1.60;;;1.40;;
40588;SDS011;26297;49.450;6.640;2023-06-14T16:42:51;1.83;;;1.73;;
40588;SDS011;26297;49.450;6.640;2023-06-14T16:46:11;3.30;;;1.90;;
40588;SDS011;26297;49.450;6.640;2023-06-14T16:54:18;2.20;;;1.77;;
40588;SDS011;26297;49.450;6.640;2023-06-14T17:20:16;1.55;;;1.10;;
40588;SDS011;26297;49.450;6.640;2023-06-14T17:28:14;1.00;;;1.00;;
40588;SDS011;26297;49.450;6.640;2023-06-14T17:31:26;1.70;;;1.60;;
40588;SDS011;26297;49.450;6.640;2023-06-14T17:34:59;2.10;;;1.88;;
40588;SDS011;26297;49.450;6.640;2023-06-14T17:43:15;0.98;;;0.90;;
40588;SDS011;26297;49.450;6.640;2023-06-14T17:46:38;1.02;;;0.80;;
40588;SDS011;26297;49.450;6.640;2023-06-14T17:55:43;1.35;;;1.25;;
40588;SDS011;26297;49.450;6.640;2023-06-14T18:02:08;4.50;;;1.40;;
40588;SDS011;26297;49.450;6.640;2023-06-14T18:42:59;1.48;;;1.10;;
40588;SDS011;26297;49.450;6.640;2023-06-14T20:08:57;1.60;;;1.40;;
40588;SDS011;26297;49.450;6.640;2023-06-14T20:12:04;3.10;;;1.70;;
40588;SDS011;26297;49.450;6.640;2023-06-14T20:18:10;4.05;;;1.88;;
40588;SDS011;26297;49.450;6.640;2023-06-14T20:35:47;1.67;;;1.52;;
40588;SDS011;26297;49.450;6.640;2023-06-14T20:38:56;2.00;;;1.30;;
40588;SDS011;26297;49.450;6.640;2023-06-14T20:50:42;2.42;;;1.70;;
40588;SDS011;26297;49.450;6.640;2023-06-14T20:54:06;2.92;;;1.50;;
40588;SDS011;26297;49.450;6.640;2023-06-14T21:00:29;2.88;;;1.80;;
40588;SDS011;26297;49.450;6.640;2023-06-14T21:03:52;3.85;;;1.60;;
40588;SDS011;26297;49.450;6.640;2023-06-14T21:07:22;1.75;;;1.65;;
40588;SDS011;26297;49.450;6.640;2023-06-14T21:10:33;1.45;;;1.35;;
40588;SDS011;26297;49.450;6.640;2023-06-14T21:22:08;1.52;;;1.42;;
40588;SDS011;26297;49.450;6.640;2023-06-14T21:25:16;1.60;;;1.50;;
40588;SDS011;26297;49.450;6.640;2023-06-14T21:34:01;1.50;;;1.40;;
40588;SDS011;26297;49.450;6.640;2023-06-14T21:40:27;1.90;;;1.47;;
40588;SDS011;26297;49.450;6.640;2023-06-14T21:43:39;1.52;;;1.42;;
40588;SDS011;26297;49.450;6.640;2023-06-14T21:46:53;2.35;;;1.58;;
40588;SDS011;26297;49.450;6.640;2023-06-14T21:49:58;1.70;;;1.60;;
40588;SDS011;26297;49.450;6.640;2023-06-14T21:53:01;2.28;;;2.08;;
40588;SDS011;26297;49.450;6.640;2023-06-14T21:56:06;2.05;;;1.77;;
40588;SDS011;26297;49.450;6.640;2023-06-14T21:59:25;1.90;;;1.70;;
40588;SDS011;26297;49.450;6.640;2023-06-14T23:13:44;2.20;;;1.40;;
40588;SDS011;26297;49.450;6.640;2023-06-14T23:17:33;1.98;;;1.85;;
40588;SDS011;26297;49.450;6.640;2023-06-14T23:20:43;4.13;;;1.55;;
40588;SDS011;26297;49.450;6.640;2023-06-14T23:24:04;1.33;;;1.23;;
40588;SDS011;26297;49.450;6.640;2023-06-14T23:36:18;2.80;;;1.80;;
40588;SDS011;26297;49.450;6.640;2023-06-14T23:39:36;2.03;;;1.80;;
40588;SDS011;26297;49.450;6.640;2023-06-14T23:43:12;1.67;;;1.58;;
40588;SDS011;26297;49.450;6.640;2023-06-14T23:46:22;2.47;;;1.80;;
40588;SDS011;26297;49.450;6.640;2023-06-14T23:49:31;1.70;;;1.60;;
40588;SDS011;26297;49.450;6.640;2023-06-14T23:53:05;2.10;;;1.38;;
40588;SDS011;26297;49.450;6.640;2023-06-14T23:56:25;1.55;;;1.42;;
40588;SDS011;26297;49.450;6.640;2023-06-14T23:59:43;2.28;;;1.73;;
